createdAt,value
2019-04-30T00:00:38.541Z,0.00
2019-04-30T00:01:38.488Z,0.00
2019-04-30T00:02:39.976Z,0.00
2019-04-30T00:03:38.479Z,0.00
2019-04-30T00:04:40.562Z,0.00
2019-04-30T00:05:38.464Z,0.00
2019-04-30T00:06:39.510Z,0.00
2019-04-30T00:07:38.444Z,0.00
2019-04-30T00:08:39.215Z,0.00
2019-04-30T00:09:38.426Z,0.00
2019-04-30T00:10:41.159Z,0.00
2019-04-30T00:11:38.437Z,0.00
2019-04-30T00:12:39.689Z,0.00
2019-04-30T00:13:38.405Z,0.00
2019-04-30T00:14:41.250Z,0.00
2019-04-30T00:15:38.417Z,0.00
2019-04-30T00:16:39.902Z,0.00
2019-04-30T00:17:41.805Z,0.00
2019-04-30T00:18:39.741Z,0.00
2019-04-30T00:19:38.371Z,0.00
2019-04-30T00:20:38.727Z,0.00
2019-04-30T00:21:38.353Z,0.00
2019-04-30T00:22:39.311Z,0.00
2019-04-30T00:23:38.343Z,0.00
2019-04-30T00:24:39.910Z,0.00
2019-04-30T00:25:38.326Z,0.00
2019-04-30T00:26:39.820Z,0.00
2019-04-30T00:27:38.310Z,0.00
2019-04-30T00:28:39.421Z,0.00
2019-04-30T00:29:38.303Z,0.00
2019-04-30T00:30:39.355Z,0.00
2019-04-30T00:31:38.294Z,0.00
2019-04-30T00:32:43.393Z,0.00
2019-04-30T00:33:38.276Z,0.00
2019-04-30T00:34:39.486Z,0.00
2019-04-30T00:35:38.260Z,0.00
2019-04-30T00:36:38.257Z,0.00
2019-04-30T00:37:38.250Z,0.00
2019-04-30T00:38:38.240Z,0.00
2019-04-30T00:39:38.235Z,0.00
2019-04-30T00:40:38.230Z,0.00
2019-04-30T00:41:39.879Z,0.00
2019-04-30T00:42:38.217Z,0.00
2019-04-30T00:43:46.438Z,0.00
2019-04-30T00:44:38.210Z,0.00
2019-04-30T00:45:39.967Z,0.00
2019-04-30T00:46:38.193Z,0.00
2019-04-30T00:47:39.466Z,0.00
2019-04-30T00:48:38.187Z,0.00
2019-04-30T00:49:38.166Z,0.00
2019-04-30T00:50:38.167Z,0.00
2019-04-30T00:51:38.158Z,0.00
2019-04-30T00:52:38.148Z,0.00
2019-04-30T00:53:38.140Z,0.00
2019-04-30T00:54:38.140Z,0.00
2019-04-30T00:55:44.342Z,0.00
2019-04-30T00:56:38.127Z,0.00
2019-04-30T00:57:43.801Z,0.00
2019-04-30T00:58:38.108Z,0.00
2019-04-30T00:59:39.794Z,0.00
2019-04-30T01:00:38.096Z,0.00
2019-04-30T01:01:43.631Z,0.00
2019-04-30T01:02:38.087Z,0.00
2019-04-30T01:07:40.071Z,0.00
2019-04-30T01:08:37.488Z,0.00
2019-04-30T01:10:31.315Z,0.00
2019-04-30T01:11:31.303Z,0.00
2019-04-30T01:13:24.699Z,0.00
2019-04-30T01:14:28.298Z,0.00
2019-04-30T01:16:19.528Z,0.00
2019-04-30T01:17:19.028Z,0.00
2019-04-30T01:18:19.326Z,0.00
2019-04-30T01:19:29.636Z,0.00
2019-04-30T01:20:19.401Z,0.00
2019-04-30T01:21:18.995Z,0.00
2019-04-30T01:22:27.877Z,0.00
2019-04-30T01:23:19.532Z,0.00
2019-04-30T01:24:19.119Z,0.00
2019-04-30T01:25:20.765Z,0.00
2019-04-30T01:26:22.804Z,0.00
2019-04-30T01:27:18.960Z,0.00
2019-04-30T01:28:23.160Z,0.00
2019-04-30T01:29:19.241Z,0.00
2019-04-30T01:30:22.772Z,0.00
2019-04-30T01:31:21.073Z,0.00
2019-04-30T01:32:21.036Z,0.00
2019-04-30T01:33:19.207Z,0.00
2019-04-30T01:34:19.619Z,0.00
2019-04-30T01:35:19.231Z,0.00
2019-04-30T01:36:19.302Z,0.00
2019-04-30T01:37:24.707Z,0.00
2019-04-30T01:38:19.010Z,0.00
2019-04-30T01:39:19.541Z,0.00
2019-04-30T01:40:19.124Z,0.00
2019-04-30T01:41:20.228Z,0.00
2019-04-30T01:42:18.857Z,0.00
2019-04-30T01:43:23.123Z,0.00
2019-04-30T01:44:19.545Z,0.00
2019-04-30T01:45:18.921Z,0.00
2019-04-30T01:46:18.948Z,0.00
2019-04-30T01:47:21.549Z,0.00
2019-04-30T01:48:19.413Z,0.00
2019-04-30T01:49:20.263Z,0.00
2019-04-30T01:50:19.426Z,0.00
2019-04-30T01:51:21.748Z,0.00
2019-04-30T01:52:19.380Z,0.00
2019-04-30T01:53:18.783Z,0.00
2019-04-30T01:54:23.958Z,0.00
2019-04-30T01:55:19.701Z,0.00
2019-04-30T01:56:19.217Z,0.00
2019-04-30T01:57:19.262Z,0.00
2019-04-30T01:58:19.373Z,0.00
2019-04-30T01:59:19.077Z,0.00
2019-04-30T02:00:19.585Z,0.00
2019-04-30T02:01:19.053Z,0.00
2019-04-30T02:02:18.725Z,0.00
2019-04-30T02:03:19.305Z,0.00
2019-04-30T02:04:19.579Z,0.00
2019-04-30T02:05:18.907Z,0.00
2019-04-30T02:06:19.701Z,0.00
2019-04-30T02:07:19.102Z,0.00
2019-04-30T02:08:19.554Z,0.00
2019-04-30T02:09:18.870Z,0.00
2019-04-30T02:10:18.758Z,0.00
2019-04-30T02:11:19.048Z,0.00
2019-04-30T02:12:19.744Z,0.00
2019-04-30T02:13:18.888Z,0.00
2019-04-30T02:14:18.955Z,0.00
2019-04-30T02:15:19.245Z,0.00
2019-04-30T02:16:21.056Z,0.00
2019-04-30T02:17:19.295Z,0.00
2019-04-30T02:18:19.524Z,0.00
2019-04-30T02:19:18.919Z,0.00
2019-04-30T02:20:18.669Z,0.00
2019-04-30T02:21:19.547Z,0.00
2019-04-30T02:22:18.952Z,0.00
2019-04-30T02:23:19.625Z,0.00
2019-04-30T02:24:19.245Z,0.00
2019-04-30T02:25:19.563Z,0.00
2019-04-30T02:26:18.813Z,0.00
2019-04-30T02:27:19.108Z,0.00
2019-04-30T02:28:19.079Z,0.00
2019-04-30T02:29:19.094Z,0.00
2019-04-30T02:30:20.932Z,0.00
2019-04-30T02:31:22.343Z,0.00
2019-04-30T02:32:20.740Z,0.00
2019-04-30T02:33:19.925Z,0.00
2019-04-30T02:34:21.808Z,0.00
2019-04-30T02:35:19.431Z,0.00
2019-04-30T02:36:19.870Z,0.00
2019-04-30T02:37:20.885Z,0.00
2019-04-30T02:38:20.160Z,0.00
2019-04-30T02:39:20.381Z,0.00
2019-04-30T02:40:20.195Z,0.00
2019-04-30T02:41:19.354Z,0.00
2019-04-30T02:42:20.089Z,0.00
2019-04-30T02:43:20.391Z,0.00
2019-04-30T02:44:19.588Z,0.00
2019-04-30T02:45:19.827Z,0.00
2019-04-30T02:46:19.262Z,0.00
2019-04-30T02:47:20.264Z,0.00
2019-04-30T02:48:19.415Z,0.00
2019-04-30T02:49:20.371Z,0.00
2019-04-30T02:50:22.347Z,0.00
2019-04-30T02:51:20.179Z,0.00
2019-04-30T02:52:19.579Z,0.00
2019-04-30T02:53:19.914Z,0.00
2019-04-30T02:54:21.936Z,0.00
2019-04-30T02:55:19.473Z,0.00
2019-04-30T02:56:20.224Z,0.00
2019-04-30T02:57:20.452Z,0.00
2019-04-30T02:58:20.999Z,0.00
2019-04-30T02:59:20.210Z,0.00
2019-04-30T03:00:20.438Z,0.00
2019-04-30T03:01:20.292Z,0.00
2019-04-30T03:02:19.570Z,0.00
2019-04-30T03:03:20.417Z,0.00
2019-04-30T03:04:19.639Z,0.00
2019-04-30T03:05:20.286Z,0.00
2019-04-30T03:06:20.392Z,0.00
2019-04-30T03:07:19.411Z,0.00
2019-04-30T03:08:19.931Z,0.00
2019-04-30T03:09:20.261Z,0.00
2019-04-30T03:10:19.854Z,0.00
2019-04-30T03:11:20.711Z,0.00
2019-04-30T03:12:20.295Z,0.00
2019-04-30T03:13:20.090Z,0.00
2019-04-30T03:14:20.066Z,0.00
2019-04-30T03:15:19.513Z,0.00
2019-04-30T03:16:20.496Z,0.00
2019-04-30T03:17:20.708Z,0.00
2019-04-30T03:18:20.065Z,0.00
2019-04-30T03:19:19.646Z,0.00
2019-04-30T03:20:31.800Z,0.00
2019-04-30T03:21:19.131Z,0.00
2019-04-30T03:22:20.337Z,0.00
2019-04-30T03:23:19.517Z,0.00
2019-04-30T03:24:20.191Z,0.00
2019-04-30T03:25:19.269Z,0.00
2019-04-30T03:26:20.032Z,0.00
2019-04-30T03:27:20.574Z,0.00
2019-04-30T03:28:20.230Z,0.00
2019-04-30T03:29:23.374Z,0.00
2019-04-30T03:30:21.900Z,0.00
2019-04-30T03:31:21.949Z,0.00
2019-04-30T03:32:22.501Z,0.00
2019-04-30T03:33:22.271Z,0.00
2019-04-30T03:34:25.128Z,0.00
2019-04-30T03:35:22.237Z,0.00
2019-04-30T03:36:21.619Z,0.00
2019-04-30T03:37:19.819Z,0.00
2019-04-30T03:38:20.345Z,0.00
2019-04-30T03:39:19.867Z,0.00
2019-04-30T03:40:20.232Z,0.00
2019-04-30T03:41:19.814Z,0.00
2019-04-30T03:42:19.941Z,0.00
2019-04-30T03:43:20.104Z,0.00
2019-04-30T03:44:24.729Z,0.00
2019-04-30T03:45:20.474Z,4.00
2019-04-30T03:46:19.434Z,4.00
2019-04-30T03:47:20.219Z,0.00
2019-04-30T03:48:20.000Z,0.00
2019-04-30T03:49:20.328Z,4.00
2019-04-30T03:50:19.859Z,4.00
2019-04-30T03:51:19.901Z,4.00
2019-04-30T03:52:19.660Z,8.00
2019-04-30T03:53:20.140Z,8.00
2019-04-30T03:54:19.361Z,8.00
2019-04-30T03:55:20.334Z,8.00
2019-04-30T03:56:20.032Z,8.00
2019-04-30T03:57:20.525Z,12.00
2019-04-30T03:58:21.276Z,12.00
2019-04-30T03:59:19.975Z,16.00
2019-04-30T04:00:20.198Z,16.00
2019-04-30T04:01:19.649Z,16.00
2019-04-30T04:02:20.587Z,20.00
2019-04-30T04:03:20.137Z,24.00
2019-04-30T04:04:20.034Z,32.00
2019-04-30T04:05:20.128Z,36.00
2019-04-30T04:06:21.230Z,36.00
2019-04-30T04:07:20.084Z,36.00
2019-04-30T04:08:19.597Z,40.00
2019-04-30T04:09:21.953Z,44.00
2019-04-30T04:10:19.508Z,48.00
2019-04-30T04:11:19.909Z,48.00
2019-04-30T04:12:20.502Z,56.00
2019-04-30T04:13:19.758Z,60.00
2019-04-30T04:14:19.818Z,64.00
2019-04-30T04:15:19.937Z,72.00
2019-04-30T04:16:19.482Z,80.00
2019-04-30T04:17:20.160Z,80.00
2019-04-30T04:18:20.179Z,84.00
2019-04-30T04:19:19.618Z,80.00
2019-04-30T04:20:20.058Z,84.00
2019-04-30T04:21:20.505Z,84.00
2019-04-30T04:22:20.308Z,96.00
2019-04-30T04:23:19.249Z,108.00
2019-04-30T04:24:20.195Z,116.00
2019-04-30T04:25:20.438Z,128.00
2019-04-30T04:26:20.056Z,140.00
2019-04-30T04:27:19.465Z,156.00
2019-04-30T04:28:20.087Z,168.00
2019-04-30T04:29:19.536Z,172.00
2019-04-30T04:30:20.110Z,172.00
2019-04-30T04:31:19.305Z,180.00
2019-04-30T04:32:23.718Z,188.00
2019-04-30T04:33:19.913Z,208.00
2019-04-30T04:34:19.684Z,212.00
2019-04-30T04:35:19.831Z,204.00
2019-04-30T04:36:19.835Z,208.00
2019-04-30T04:37:19.923Z,228.00
2019-04-30T04:38:20.103Z,260.00
2019-04-30T04:39:20.199Z,272.00
2019-04-30T04:40:20.711Z,264.00
2019-04-30T04:41:19.817Z,268.00
2019-04-30T04:42:19.452Z,300.00
2019-04-30T04:43:20.025Z,324.00
2019-04-30T04:44:20.428Z,340.00
2019-04-30T04:45:19.885Z,340.00
2019-04-30T04:46:20.329Z,360.00
2019-04-30T04:47:20.059Z,360.00
2019-04-30T04:48:19.797Z,380.00
2019-04-30T04:49:20.028Z,400.00
2019-04-30T04:50:19.878Z,400.00
2019-04-30T04:51:31.383Z,412.00
2019-04-30T04:52:21.045Z,428.00
2019-04-30T04:53:19.534Z,456.00
2019-04-30T04:54:19.952Z,480.00
2019-04-30T04:55:21.803Z,492.00
2019-04-30T04:56:19.085Z,496.00
2019-04-30T04:57:19.531Z,484.00
2019-04-30T04:58:21.160Z,504.00
2019-04-30T04:59:19.962Z,556.00
2019-04-30T05:00:19.396Z,624.00
2019-04-30T05:01:20.174Z,668.00
2019-04-30T05:02:19.465Z,660.00
2019-04-30T05:03:17.530Z,640.00
2019-04-30T05:04:19.735Z,620.00
2019-04-30T05:05:19.412Z,632.00
2019-04-30T05:06:20.680Z,668.00
2019-04-30T05:07:19.562Z,752.00
2019-04-30T05:08:18.579Z,828.00
2019-04-30T05:09:19.365Z,836.00
2019-04-30T05:10:19.085Z,876.00
2019-04-30T05:11:19.107Z,896.00
2019-04-30T05:12:18.538Z,900.00
2019-04-30T05:13:19.074Z,876.00
2019-04-30T05:14:18.995Z,888.00
2019-04-30T05:15:19.317Z,940.00
2019-04-30T05:16:19.046Z,1008.00
2019-04-30T05:17:19.454Z,1092.00
2019-04-30T05:18:19.059Z,1064.00
2019-04-30T05:19:18.652Z,1028.00
2019-04-30T05:20:19.286Z,1028.00
2019-04-30T05:21:18.839Z,1008.00
2019-04-30T05:22:19.058Z,1124.00
2019-04-30T05:23:21.568Z,1168.00
2019-04-30T05:24:19.051Z,1132.00
2019-04-30T05:25:18.669Z,1292.00
2019-04-30T05:26:19.087Z,1408.00
2019-04-30T05:27:17.376Z,1520.00
2019-04-30T05:28:18.914Z,1544.00
2019-04-30T05:29:19.074Z,1440.00
2019-04-30T05:30:19.386Z,1412.00
2019-04-30T05:31:18.467Z,1420.00
2019-04-30T05:32:19.588Z,1508.00
2019-04-30T05:33:18.600Z,1616.00
2019-04-30T05:34:18.863Z,1668.00
2019-04-30T05:35:18.586Z,1684.00
2019-04-30T05:36:19.049Z,1752.00
2019-04-30T05:37:18.697Z,1820.00
2019-04-30T05:38:18.854Z,1856.00
2019-04-30T05:39:18.860Z,1912.00
2019-04-30T05:40:18.863Z,1996.00
2019-04-30T05:41:19.132Z,2032.00
2019-04-30T05:42:18.477Z,1932.00
2019-04-30T05:43:19.176Z,2024.00
2019-04-30T05:44:18.508Z,2028.00
2019-04-30T05:45:19.068Z,2116.00
2019-04-30T05:46:17.264Z,2304.00
2019-04-30T05:47:19.382Z,2488.00
2019-04-30T05:48:18.586Z,2632.00
2019-04-30T05:49:18.890Z,2688.00
2019-04-30T05:50:17.235Z,2708.00
2019-04-30T05:51:19.313Z,2768.00
2019-04-30T05:52:19.704Z,2552.00
2019-04-30T05:53:18.908Z,2476.00
2019-04-30T05:54:18.933Z,2548.00
2019-04-30T05:55:17.200Z,3184.00
2019-04-30T05:56:19.193Z,2604.00
2019-04-30T05:57:17.202Z,2764.00
2019-04-30T05:58:19.276Z,2992.00
2019-04-30T05:59:20.472Z,3136.00
2019-04-30T06:00:18.903Z,3248.00
2019-04-30T06:01:17.167Z,3232.00
2019-04-30T06:02:19.415Z,3240.00
2019-04-30T06:03:27.655Z,3420.00
2019-04-30T06:04:17.166Z,3376.00
2019-04-30T06:05:18.745Z,3608.00
2019-04-30T06:06:19.149Z,3708.00
2019-04-30T06:07:18.884Z,3564.00
2019-04-30T06:08:19.114Z,3696.00
2019-04-30T06:09:30.748Z,3848.00
2019-04-30T06:10:17.128Z,3664.00
2019-04-30T06:11:17.122Z,3364.00
2019-04-30T06:12:20.067Z,3000.00
2019-04-30T06:13:18.919Z,2940.00
2019-04-30T06:14:18.573Z,3040.00
2019-04-30T06:15:19.243Z,3236.00
2019-04-30T06:16:18.714Z,3428.00
2019-04-30T06:17:17.093Z,3688.00
2019-04-30T06:18:18.541Z,3852.00
2019-04-30T06:19:17.083Z,3832.00
2019-04-30T06:20:19.190Z,3432.00
2019-04-30T06:21:17.069Z,3196.00
2019-04-30T06:22:18.983Z,3092.00
2019-04-30T06:23:17.064Z,2984.00
2019-04-30T06:24:18.764Z,2980.00
2019-04-30T06:25:30.654Z,3124.00
2019-04-30T06:26:17.045Z,3116.00
2019-04-30T06:27:18.922Z,3784.00
2019-04-30T06:28:17.040Z,3768.00
2019-04-30T06:29:18.893Z,3600.00
2019-04-30T06:30:17.030Z,3620.00
2019-04-30T06:31:19.720Z,3860.00
2019-04-30T06:32:18.643Z,4032.00
2019-04-30T06:33:18.914Z,3976.00
2019-04-30T06:34:17.009Z,4200.00
2019-04-30T06:35:16.999Z,4376.00
2019-04-30T06:36:18.894Z,4868.00
2019-04-30T06:37:19.277Z,6232.00
2019-04-30T06:38:18.493Z,7856.00
2019-04-30T06:39:18.773Z,8604.00
2019-04-30T06:40:16.985Z,7664.00
2019-04-30T06:41:16.982Z,6344.00
2019-04-30T06:42:16.977Z,6636.00
2019-04-30T06:43:18.945Z,6764.00
2019-04-30T06:44:16.971Z,6260.00
2019-04-30T06:45:18.980Z,8144.00
2019-04-30T06:46:18.581Z,7316.00
2019-04-30T06:47:18.784Z,7176.00
2019-04-30T06:48:16.957Z,6696.00
2019-04-30T06:49:16.961Z,6676.00
2019-04-30T06:50:16.953Z,6732.00
2019-04-30T06:51:18.797Z,5908.00
2019-04-30T06:52:20.807Z,4004.00
2019-04-30T06:53:16.943Z,6944.00
2019-04-30T06:54:19.041Z,6976.00
2019-04-30T06:55:19.100Z,7096.00
2019-04-30T06:56:18.811Z,6952.00
2019-04-30T06:57:16.937Z,5360.00
2019-04-30T06:58:16.936Z,6252.00
2019-04-30T06:59:16.932Z,5144.00
2019-04-30T07:00:16.934Z,6864.00
2019-04-30T07:01:18.944Z,7104.00
2019-04-30T07:02:16.936Z,7612.00
2019-04-30T07:03:19.020Z,3940.00
2019-04-30T07:04:16.946Z,4144.00
2019-04-30T07:05:18.582Z,4540.00
2019-04-30T07:06:28.823Z,5188.00
2019-04-30T07:07:21.375Z,4280.00
2019-04-30T07:08:18.907Z,6408.00
2019-04-30T07:09:16.940Z,3244.00
2019-04-30T07:10:18.099Z,3284.00
2019-04-30T07:11:16.927Z,3248.00
2019-04-30T07:12:25.437Z,3196.00
2019-04-30T07:13:18.674Z,3472.00
2019-04-30T07:14:16.926Z,4112.00
2019-04-30T07:15:16.928Z,4404.00
2019-04-30T07:16:18.985Z,4436.00
2019-04-30T07:17:16.933Z,7644.00
2019-04-30T07:18:18.850Z,4940.00
2019-04-30T07:19:29.943Z,4180.00
2019-04-30T07:20:18.971Z,3228.00
2019-04-30T07:21:16.922Z,3756.00
2019-04-30T07:22:19.044Z,3988.00
2019-04-30T07:23:18.845Z,3796.00
2019-04-30T07:24:16.915Z,3412.00
2019-04-30T07:25:16.921Z,3668.00
2019-04-30T07:26:22.742Z,4388.00
2019-04-30T07:27:21.773Z,4204.00
2019-04-30T07:28:18.908Z,4736.00
2019-04-30T07:29:16.900Z,5956.00
2019-04-30T07:30:16.905Z,4284.00
2019-04-30T07:31:18.956Z,4664.00
2019-04-30T07:32:19.123Z,5172.00
2019-04-30T07:33:16.898Z,6124.00
2019-04-30T07:34:16.895Z,7316.00
2019-04-30T07:35:19.311Z,6740.00
2019-04-30T07:36:16.889Z,5992.00
2019-04-30T07:37:23.919Z,5388.00
2019-04-30T07:38:19.219Z,3948.00
2019-04-30T07:39:19.075Z,4308.00
2019-04-30T07:40:18.635Z,4084.00
2019-04-30T07:41:18.872Z,3468.00
2019-04-30T07:42:16.879Z,3120.00
2019-04-30T07:43:18.872Z,3608.00
2019-04-30T07:44:31.050Z,4372.00
2019-04-30T07:45:16.876Z,4808.00
2019-04-30T07:46:16.873Z,5300.00
2019-04-30T07:47:18.882Z,6536.00
2019-04-30T07:48:21.048Z,6264.00
2019-04-30T07:49:16.866Z,4812.00
2019-04-30T07:50:17.412Z,3916.00
2019-04-30T07:51:20.334Z,3312.00
2019-04-30T07:52:17.502Z,3464.00
2019-04-30T07:53:18.784Z,3460.00
2019-04-30T07:54:18.826Z,3540.00
2019-04-30T07:55:16.857Z,3160.00
2019-04-30T07:56:25.710Z,3268.00
2019-04-30T07:57:16.865Z,3292.00
2019-04-30T07:58:20.203Z,3776.00
2019-04-30T07:59:16.850Z,4392.00
2019-04-30T08:00:16.849Z,4228.00
2019-04-30T08:01:19.379Z,3984.00
2019-04-30T08:02:16.841Z,4188.00
2019-04-30T08:03:20.073Z,4328.00
2019-04-30T08:04:18.418Z,4016.00
2019-04-30T08:05:16.837Z,4036.00
2019-04-30T08:06:18.901Z,4180.00
2019-04-30T08:07:16.839Z,4500.00
2019-04-30T08:08:24.325Z,5468.00
2019-04-30T08:09:21.876Z,5732.00
2019-04-30T08:10:18.652Z,7384.00
2019-04-30T08:11:23.865Z,7812.00
2019-04-30T08:12:26.092Z,7144.00
2019-04-30T08:13:17.252Z,7644.00
2019-04-30T08:14:18.500Z,6172.00
2019-04-30T08:15:16.809Z,5044.00
2019-04-30T08:16:18.686Z,4148.00
2019-04-30T08:17:18.730Z,4024.00
2019-04-30T08:18:18.467Z,4336.00
2019-04-30T08:19:16.810Z,4484.00
2019-04-30T08:20:16.803Z,4548.00
2019-04-30T08:21:18.850Z,5056.00
2019-04-30T08:22:16.793Z,5188.00
2019-04-30T08:23:32.898Z,5276.00
2019-04-30T08:24:16.790Z,5576.00
2019-04-30T08:25:18.923Z,6028.00
2019-04-30T08:26:18.604Z,6352.00
2019-04-30T08:27:16.785Z,6808.00
2019-04-30T08:28:18.623Z,6476.00
2019-04-30T08:29:16.777Z,5600.00
2019-04-30T08:30:23.972Z,5140.00
2019-04-30T08:31:16.783Z,5036.00
2019-04-30T08:32:18.938Z,4932.00
2019-04-30T08:33:16.775Z,4920.00
2019-04-30T08:34:16.764Z,5120.00
2019-04-30T08:35:16.768Z,5364.00
2019-04-30T08:36:16.764Z,5148.00
2019-04-30T08:37:19.624Z,5068.00
2019-04-30T08:38:16.751Z,5380.00
2019-04-30T08:39:16.760Z,5732.00
2019-04-30T08:40:18.869Z,6284.00
2019-04-30T08:41:16.753Z,6620.00
2019-04-30T08:42:29.086Z,6756.00
2019-04-30T08:43:16.747Z,5832.00
2019-04-30T08:44:16.748Z,4964.00
2019-04-30T08:45:16.761Z,4132.00
2019-04-30T08:46:18.847Z,3636.00
2019-04-30T08:47:18.827Z,3644.00
2019-04-30T08:48:18.829Z,4072.00
2019-04-30T08:49:18.983Z,4852.00
2019-04-30T08:50:16.739Z,5424.00
2019-04-30T08:51:18.766Z,5624.00
2019-04-30T08:52:16.734Z,4848.00
2019-04-30T08:53:27.411Z,5032.00
2019-04-30T08:54:16.727Z,5348.00
2019-04-30T08:55:17.143Z,5340.00
2019-04-30T08:56:16.727Z,5104.00
2019-04-30T08:57:18.893Z,5144.00
2019-04-30T08:58:20.311Z,5000.00
2019-04-30T08:59:16.723Z,4104.00
2019-04-30T09:00:16.719Z,3748.00
2019-04-30T09:01:19.017Z,3832.00
2019-04-30T09:02:16.759Z,4116.00
2019-04-30T09:03:16.714Z,3828.00
2019-04-30T09:04:16.711Z,3340.00
2019-04-30T09:05:18.456Z,3752.00
2019-04-30T09:06:16.702Z,4220.00
2019-04-30T09:07:16.700Z,5428.00
2019-04-30T09:08:16.698Z,6876.00
2019-04-30T09:09:18.708Z,6904.00
2019-04-30T09:10:16.703Z,6076.00
2019-04-30T09:11:24.659Z,5536.00
2019-04-30T09:12:16.693Z,4764.00
2019-04-30T09:13:16.689Z,4348.00
2019-04-30T09:14:18.577Z,4744.00
2019-04-30T09:15:18.715Z,5276.00
2019-04-30T09:16:16.688Z,5492.00
2019-04-30T09:17:16.688Z,5024.00
2019-04-30T09:18:16.682Z,4460.00
2019-04-30T09:19:16.676Z,4048.00
2019-04-30T09:20:16.680Z,3884.00
2019-04-30T09:21:18.231Z,3980.00
2019-04-30T09:22:16.677Z,4216.00
2019-04-30T09:23:18.597Z,4276.00
2019-04-30T09:24:16.668Z,3988.00
2019-04-30T09:25:16.676Z,3380.00
2019-04-30T09:26:18.525Z,2984.00
2019-04-30T09:27:16.658Z,3064.00
2019-04-30T09:28:16.666Z,3560.00
2019-04-30T09:29:16.661Z,3984.00
2019-04-30T09:30:18.643Z,4340.00
2019-04-30T09:31:16.659Z,4800.00
2019-04-30T09:32:16.662Z,5908.00
2019-04-30T09:33:16.664Z,6704.00
2019-04-30T09:34:18.546Z,7048.00
2019-04-30T09:35:16.650Z,6932.00
2019-04-30T09:36:16.649Z,5960.00
2019-04-30T09:37:18.521Z,5856.00
2019-04-30T09:38:16.640Z,5988.00
2019-04-30T09:39:16.640Z,5328.00
2019-04-30T09:40:19.070Z,4720.00
2019-04-30T09:41:16.639Z,4036.00
2019-04-30T09:42:16.636Z,3668.00
2019-04-30T09:43:18.294Z,3488.00
2019-04-30T09:44:16.639Z,3380.00
2019-04-30T09:45:18.578Z,3180.00
2019-04-30T09:46:24.557Z,3132.00
2019-04-30T09:47:16.626Z,2976.00
2019-04-30T09:48:18.830Z,3016.00
2019-04-30T09:49:16.628Z,2916.00
2019-04-30T09:50:18.748Z,3052.00
2019-04-30T09:51:17.048Z,3028.00
2019-04-30T09:52:18.788Z,3008.00
2019-04-30T09:53:16.777Z,3000.00
2019-04-30T09:54:17.598Z,2952.00
2019-04-30T09:55:16.615Z,2952.00
2019-04-30T09:56:16.615Z,3060.00
2019-04-30T09:57:16.620Z,3420.00
2019-04-30T09:58:18.238Z,3968.00
2019-04-30T09:59:16.604Z,4340.00
2019-04-30T10:00:16.602Z,4380.00
2019-04-30T10:01:16.613Z,3996.00
2019-04-30T10:02:16.604Z,3540.00
2019-04-30T10:03:19.051Z,3704.00
2019-04-30T10:04:17.107Z,4404.00
2019-04-30T10:05:18.439Z,5568.00
2019-04-30T10:06:16.590Z,5312.00
2019-04-30T10:07:16.591Z,4608.00
2019-04-30T10:08:16.589Z,4240.00
2019-04-30T10:09:16.584Z,3924.00
2019-04-30T10:10:16.579Z,3444.00
2019-04-30T10:11:16.581Z,2800.00
2019-04-30T10:12:16.578Z,2708.00
2019-04-30T10:13:16.581Z,2640.00
2019-04-30T10:14:16.574Z,2864.00
2019-04-30T10:15:16.573Z,2996.00
2019-04-30T10:16:16.572Z,3052.00
2019-04-30T10:17:16.567Z,3092.00
2019-04-30T10:18:16.562Z,3100.00
2019-04-30T10:19:16.561Z,2968.00
2019-04-30T10:20:16.555Z,2832.00
2019-04-30T10:21:16.560Z,2756.00
2019-04-30T10:22:16.556Z,2712.00
2019-04-30T10:23:16.552Z,2700.00
2019-04-30T10:24:16.550Z,2764.00
2019-04-30T10:25:16.555Z,2912.00
2019-04-30T10:26:16.549Z,2916.00
2019-04-30T10:27:18.880Z,2536.00
2019-04-30T10:28:16.541Z,2412.00
2019-04-30T10:29:16.530Z,2444.00
2019-04-30T10:30:16.528Z,2712.00
2019-04-30T10:31:16.533Z,2816.00
2019-04-30T10:32:18.586Z,2864.00
2019-04-30T10:33:16.527Z,2864.00
2019-04-30T10:34:16.528Z,2884.00
2019-04-30T10:35:18.315Z,2868.00
2019-04-30T10:36:16.524Z,2828.00
2019-04-30T10:37:16.521Z,2792.00
2019-04-30T10:38:16.518Z,2824.00
2019-04-30T10:39:16.511Z,2944.00
2019-04-30T10:40:20.098Z,2932.00
2019-04-30T10:41:18.581Z,3244.00
2019-04-30T10:42:16.508Z,3316.00
2019-04-30T10:43:16.504Z,3448.00
2019-04-30T10:44:16.502Z,3584.00
2019-04-30T10:45:18.505Z,3888.00
2019-04-30T10:46:16.491Z,4192.00
2019-04-30T10:47:16.491Z,3952.00
2019-04-30T10:48:16.494Z,3944.00
2019-04-30T10:49:16.489Z,3864.00
2019-04-30T10:50:16.489Z,3736.00
2019-04-30T10:51:16.484Z,3432.00
2019-04-30T10:52:16.483Z,2536.00
2019-04-30T10:53:16.475Z,2096.00
2019-04-30T10:54:23.998Z,2152.00
2019-04-30T10:55:16.487Z,2232.00
2019-04-30T10:56:16.472Z,2452.00
2019-04-30T10:57:18.380Z,2528.00
2019-04-30T10:58:16.463Z,2524.00
2019-04-30T10:59:16.458Z,2552.00
2019-04-30T11:00:16.458Z,2576.00
2019-04-30T11:01:16.460Z,2604.00
2019-04-30T11:02:16.460Z,2704.00
2019-04-30T11:03:20.844Z,2736.00
2019-04-30T11:04:16.451Z,2680.00
2019-04-30T11:05:16.444Z,2768.00
2019-04-30T11:06:16.441Z,3012.00
2019-04-30T11:07:18.530Z,3028.00
2019-04-30T11:08:16.434Z,2952.00
2019-04-30T11:09:16.438Z,3392.00
2019-04-30T11:10:16.435Z,4008.00
2019-04-30T11:11:16.426Z,3948.00
2019-04-30T11:12:16.425Z,4044.00
2019-04-30T11:13:16.433Z,3924.00
2019-04-30T11:14:16.423Z,3616.00
2019-04-30T11:15:16.422Z,3460.00
2019-04-30T11:16:16.417Z,3128.00
2019-04-30T11:17:16.587Z,2588.00
2019-04-30T11:18:16.562Z,2436.00
2019-04-30T11:19:16.625Z,2424.00
2019-04-30T11:20:16.605Z,2788.00
2019-04-30T11:21:16.602Z,3252.00
2019-04-30T11:22:16.542Z,3660.00
2019-04-30T11:23:16.642Z,4040.00
2019-04-30T11:24:16.645Z,4276.00
2019-04-30T11:25:16.632Z,4752.00
2019-04-30T11:26:16.984Z,5364.00
2019-04-30T11:27:16.953Z,4520.00
2019-04-30T11:28:16.749Z,3748.00
2019-04-30T11:29:16.559Z,3280.00
2019-04-30T11:30:21.226Z,3280.00
2019-04-30T11:31:16.656Z,3784.00
2019-04-30T11:32:16.608Z,3652.00
2019-04-30T11:33:16.536Z,3092.00
2019-04-30T11:34:16.377Z,2736.00
2019-04-30T11:35:18.444Z,2760.00
2019-04-30T11:36:16.367Z,2800.00
2019-04-30T11:37:16.366Z,2940.00
2019-04-30T11:38:16.365Z,2740.00
2019-04-30T11:39:16.363Z,2520.00
2019-04-30T11:40:16.363Z,2428.00
2019-04-30T11:41:29.279Z,2388.00
2019-04-30T11:42:16.371Z,2356.00
2019-04-30T11:43:18.166Z,2348.00
2019-04-30T11:44:28.504Z,2336.00
2019-04-30T11:45:16.357Z,2344.00
2019-04-30T11:46:16.354Z,2356.00
2019-04-30T11:47:16.356Z,2204.00
2019-04-30T11:48:16.348Z,2468.00
2019-04-30T11:49:16.343Z,2540.00
2019-04-30T11:50:16.344Z,2616.00
2019-04-30T11:51:16.340Z,2744.00
2019-04-30T11:52:16.340Z,2884.00
2019-04-30T11:53:25.398Z,2588.00
2019-04-30T11:54:16.339Z,2552.00
2019-04-30T11:55:16.335Z,2676.00
2019-04-30T11:56:16.334Z,3152.00
2019-04-30T11:57:16.335Z,3148.00
2019-04-30T11:58:21.625Z,2880.00
2019-04-30T11:59:16.324Z,2300.00
2019-04-30T12:00:18.561Z,2164.00
2019-04-30T12:01:16.314Z,2172.00
2019-04-30T12:02:16.320Z,2280.00
2019-04-30T12:03:16.313Z,2396.00
2019-04-30T12:04:16.316Z,2344.00
2019-04-30T12:05:16.315Z,2304.00
2019-04-30T12:06:16.306Z,2296.00
2019-04-30T12:07:16.312Z,2344.00
2019-04-30T12:08:16.308Z,2396.00
2019-04-30T12:09:16.300Z,2028.00
2019-04-30T12:10:16.299Z,2084.00
2019-04-30T12:11:16.296Z,2316.00
2019-04-30T12:12:16.295Z,2304.00
2019-04-30T12:13:16.300Z,2296.00
2019-04-30T12:14:16.286Z,2288.00
2019-04-30T12:15:16.285Z,2248.00
2019-04-30T12:16:16.286Z,2248.00
2019-04-30T12:17:16.284Z,2312.00
2019-04-30T12:18:16.283Z,2324.00
2019-04-30T12:19:16.281Z,2344.00
2019-04-30T12:20:16.279Z,2344.00
2019-04-30T12:21:16.271Z,2316.00
2019-04-30T12:22:16.270Z,2280.00
2019-04-30T12:23:16.267Z,2232.00
2019-04-30T12:24:16.266Z,2176.00
2019-04-30T12:25:16.266Z,2188.00
2019-04-30T12:26:16.255Z,2184.00
2019-04-30T12:27:16.262Z,2196.00
2019-04-30T12:28:16.263Z,2208.00
2019-04-30T12:29:16.258Z,2220.00
2019-04-30T12:30:16.251Z,2232.00
2019-04-30T12:31:16.252Z,2224.00
2019-04-30T12:32:16.251Z,2208.00
2019-04-30T12:33:16.248Z,2212.00
2019-04-30T12:34:16.241Z,2200.00
2019-04-30T12:35:16.237Z,2196.00
2019-04-30T12:36:16.236Z,2236.00